Time;durP1;ratioP1;P1;durP2;ratioP2;P2;SDS_P1;SDS_P2;PMS_P1;PMS_P2;Temp;Humidity;BMP_temperature;BMP_pressure;BME280_temperature;BME280_humidity;BME280_pressure;Samples;Min_cycle;Max_cycle;Signal;HPM_P1;HPM_P2
2023/11/28 00:01:52;;;;;;;;;;;;;;;;;;5096485;28;19964;-66
2023/11/28 00:04:18;;;;;;;;;;;;;;;;;;5092563;28;20321;-66
2023/11/28 00:06:44;;;;;;;;;;;;;;;;;;5076855;28;19924;-66
2023/11/28 00:09:10;;;;;;;;;;;;;;;;;;5084648;28;19920;-66
2023/11/28 00:11:36;;;;;;;;;;;;;;;;;;5092160;28;19920;-66
2023/11/28 00:14:02;;;;;;;;;;;;;;;;;;5090339;28;19970;-66
2023/11/28 00:16:28;;;;;;;;;;;;;;;;;;5091091;28;19924;-66
2023/11/28 00:18:55;;;;;;;;;;;;;;;;;;5088474;28;19931;-66
2023/11/28 00:21:21;;;;;;;;;;;;;;;;;;5073746;28;19955;-66
2023/11/28 00:23:47;;;;;;;;;;;;;;;;;;5084092;28;20347;-66
2023/11/28 00:26:13;;;;;;;;;;;;;;;;;;5072928;28;20014;-66
2023/11/28 00:28:39;;;;;;;;;;;;;;;;;;5087312;28;20016;-66
2023/11/28 00:31:05;;;;;;;;;;;;;;;;;;5074454;28;19934;-66
2023/11/28 00:33:31;;;;;;;;;;;;;;;;;;5096044;28;21927;-66
2023/11/28 00:35:57;;;;;;;;;;;;;;;;;;5080812;28;19920;-66
2023/11/28 00:38:23;;;;;;;;;;;;;;;;;;5068804;28;19950;-66
2023/11/28 00:40:49;;;;;;;;;;;;;;;;;;5085092;28;19932;-66
2023/11/28 00:43:15;;;;;;;;;;;;;;;;;;5070118;28;20015;-66
2023/11/28 00:45:41;;;;;;;;;;;;;;;;;;5088431;28;19975;-66
2023/11/28 00:48:07;;;;;;;;;;;;;;;;;;5095185;28;19971;-66
2023/11/28 00:50:33;;;;;;;;;;;;;;;;;;5089691;28;19951;-66
2023/11/28 00:52:59;;;;;;;;;;;;;;;;;;5094548;28;19920;-66
2023/11/28 00:55:25;;;;;;;;;;;;;;;;;;5078799;28;19970;-66
2023/11/28 00:57:51;;;;;;;;;;;;;;;;;;5088955;28;19963;-66
2023/11/28 01:00:17;;;;;;;;;;;;;;;;;;5085758;28;20031;-66
2023/11/28 01:02:43;;;;;;;;;;;;;;;;;;5093311;28;19954;-66
2023/11/28 01:05:09;;;;;;;;;;;;;;;;;;5090326;28;20392;-66
2023/11/28 01:07:34;;;;;;;;;;;;;;;;;;5072638;28;20011;-66
2023/11/28 01:10:00;;;;;;;;;;;;;;;;;;5072355;28;19998;-66
2023/11/28 01:12:26;;;;;;;;;;;;;;;;;;5070408;28;19920;-66
2023/11/28 01:14:52;;;;;;;;;;;;;;;;;;5070716;28;19946;-66
2023/11/28 01:17:18;;;;;;;;;;;;;;;;;;5085765;28;19946;-66
2023/11/28 01:19:44;;;;;;;;;;;;;;;;;;5087872;28;20456;-66
2023/11/28 01:22:11;;;;;;;;;;;;;;;;;;5071333;28;19924;-66
2023/11/28 01:24:37;;;;;;;;;;;;;;;;;;5087669;28;19921;-66
2023/11/28 01:27:03;;;;;;;;;;;;;;;;;;5072053;28;19985;-66
2023/11/28 01:29:29;;;;;;;;;;;;;;;;;;5090394;28;19966;-66
2023/11/28 01:31:55;;;;;;;;;;;;;;;;;;5055699;28;20187;-65
2023/11/28 01:34:21;;;;;;;;;;;;;;;;;;5095437;28;19946;-65
2023/11/28 01:36:47;;;;;;;;;;;;;;;;;;5089539;28;20394;-65
2023/11/28 01:39:14;;;;;;;;;;;;;;;;;;5091326;28;19928;-65
2023/11/28 01:41:41;;;;;;;;;;;;;;;;;;5088229;28;20014;-65
2023/11/28 01:44:07;;;;;;;;;;;;;;;;;;5090363;28;19924;-65
2023/11/28 01:46:34;;;;;;;;;;;;;;;;;;5087972;28;19920;-65
2023/11/28 01:49:00;;;;;;;;;;;;;;;;;;5067631;28;19924;-65
2023/11/28 01:51:26;;;;;;;;;;;;;;;;;;5090376;28;20314;-66
2023/11/28 01:53:56;;;;;;;;;;;;;;;;;;5078110;28;20015;-66
2023/11/28 01:56:22;;;;;;;;;;;;;;;;;;5053342;28;20007;-66
2023/11/28 01:58:48;;;;;;;;;;;;;;;;;;5087672;28;20011;-66
2023/11/28 02:01:14;;;;;;;;;;;;;;;;;;5090120;28;20301;-66
2023/11/28 02:03:39;;;;;;;;;;;;;;;;;;5089475;28;19924;-66
2023/11/28 02:06:05;;;;;;;;;;;;;;;;;;5083136;28;20450;-66
2023/11/28 02:08:31;;;;;;;;;;;;;;;;;;5076646;28;19927;-66
2023/11/28 02:10:59;;;;;;;;;;;;;;;;;;5078525;28;19928;-66
2023/11/28 02:13:25;;;;;;;;;;;;;;;;;;5058024;28;19999;-65
2023/11/28 02:15:51;;;;;;;;;;;;;;;;;;5092943;28;20008;-65
2023/11/28 02:18:17;;;;;;;;;;;;;;;;;;5086359;28;20352;-66
2023/11/28 02:20:43;;;;;;;;;;;;;;;;;;5089258;28;19923;-65
2023/11/28 02:23:09;;;;;;;;;;;;;;;;;;5074398;28;19927;-65
2023/11/28 02:25:35;;;;;;;;;;;;;;;;;;5087825;28;19928;-66
2023/11/28 02:28:01;;;;;;;;;;;;;;;;;;5086849;28;19931;-65
2023/11/28 02:30:27;;;;;;;;;;;;;;;;;;5088022;28;19928;-65
2023/11/28 02:32:53;;;;;;;;;;;;;;;;;;5074339;28;19924;-65
2023/11/28 02:35:19;;;;;;;;;;;;;;;;;;5077931;28;19924;-65
2023/11/28 02:37:44;;;;;;;;;;;;;;;;;;5083486;28;20021;-65
2023/11/28 02:40:10;;;;;;;;;;;;;;;;;;5070081;28;19923;-65
2023/11/28 02:42:36;;;;;;;;;;;;;;;;;;5069137;28;19920;-66
2023/11/28 02:45:02;;;;;;;;;;;;;;;;;;5087713;28;19946;-66
2023/11/28 02:47:28;;;;;;;;;;;;;;;;;;5086317;28;19969;-66
2023/11/28 02:49:54;;;;;;;;;;;;;;;;;;5093297;28;19924;-66
2023/11/28 02:52:20;;;;;;;;;;;;;;;;;;5083960;28;19920;-66
2023/11/28 02:54:46;;;;;;;;;;;;;;;;;;5073736;28;19931;-66
2023/11/28 02:57:12;;;;;;;;;;;;;;;;;;5089926;28;19920;-66
2023/11/28 02:59:38;;;;;;;;;;;;;;;;;;5081881;28;19946;-66
2023/11/28 03:02:04;;;;;;;;;;;;;;;;;;5093471;28;19961;-66
2023/11/28 03:04:30;;;;;;;;;;;;;;;;;;5076070;28;19924;-66
2023/11/28 03:06:56;;;;;;;;;;;;;;;;;;5086595;28;19927;-65
2023/11/28 03:09:22;;;;;;;;;;;;;;;;;;5093782;28;20552;-65
2023/11/28 03:11:48;;;;;;;;;;;;;;;;;;5082441;28;19920;-65
2023/11/28 03:14:13;;;;;;;;;;;;;;;;;;5088749;28;19923;-65
2023/11/28 03:16:39;;;;;;;;;;;;;;;;;;5084611;28;19921;-66
2023/11/28 03:19:05;;;;;;;;;;;;;;;;;;5089972;28;20324;-66
2023/11/28 03:21:31;;;;;;;;;;;;;;;;;;5091188;28;19927;-66
2023/11/28 03:23:57;;;;;;;;;;;;;;;;;;5075460;28;19924;-66
2023/11/28 03:26:23;;;;;;;;;;;;;;;;;;5075347;28;19935;-66
2023/11/28 03:28:49;;;;;;;;;;;;;;;;;;5086121;28;19920;-66
2023/11/28 03:31:15;;;;;;;;;;;;;;;;;;5073966;28;19931;-66
2023/11/28 03:33:41;;;;;;;;;;;;;;;;;;5096462;28;19924;-66
2023/11/28 03:36:07;;;;;;;;;;;;;;;;;;5076406;28;19920;-66
2023/11/28 03:38:33;;;;;;;;;;;;;;;;;;5084604;28;20360;-66
2023/11/28 03:40:59;;;;;;;;;;;;;;;;;;5089292;28;19928;-66
2023/11/28 03:43:25;;;;;;;;;;;;;;;;;;5075916;28;19924;-66
2023/11/28 03:45:51;;;;;;;;;;;;;;;;;;5091972;28;19920;-66
2023/11/28 03:48:17;;;;;;;;;;;;;;;;;;5090846;28;19920;-66
2023/11/28 03:50:43;;;;;;;;;;;;;;;;;;5083681;28;20027;-66
2023/11/28 03:53:09;;;;;;;;;;;;;;;;;;5096113;28;20430;-66
2023/11/28 03:55:35;;;;;;;;;;;;;;;;;;5093151;23;19947;-66
2023/11/28 03:58:01;;;;;;;;;;;;;;;;;;5094642;27;20337;-66
2023/11/28 04:00:27;;;;;;;;;;;;;;;;;;5107802;28;19924;-66
2023/11/28 04:02:53;;;;;;;;;;;;;;;;;;5095345;28;19965;-67
2023/11/28 04:05:18;;;;;;;;;;;;;;;;;;5111118;28;19926;-67
2023/11/28 04:07:44;;;;;;;;;;;;;;;;;;5106394;27;19962;-67
2023/11/28 04:10:10;;;;;;;;;;;;;;;;;;5106685;27;19924;-67
2023/11/28 04:12:36;;;;;;;;;;;;;;;;;;5106276;27;20010;-67
2023/11/28 04:15:02;;;;;;;;;;;;;;;;;;5110131;27;20436;-67
2023/11/28 04:17:28;;;;;;;;;;;;;;;;;;5110408;27;20026;-67
2023/11/28 04:19:54;;;;;;;;;;;;;;;;;;5106449;27;20014;-67
2023/11/28 04:22:20;;;;;;;;;;;;;;;;;;5107563;27;19951;-67
2023/11/28 04:24:46;;;;;;;;;;;;;;;;;;5106663;27;19924;-67
2023/11/28 04:27:12;;;;;;;;;;;;;;;;;;5092107;28;19924;-66
2023/11/28 04:29:38;;;;;;;;;;;;;;;;;;5107466;27;20048;-66
2023/11/28 04:32:04;;;;;;;;;;;;;;;;;;5105556;27;20010;-66
2023/11/28 04:34:30;;;;;;;;;;;;;;;;;;5092621;28;20641;-66
2023/11/28 04:36:56;;;;;;;;;;;;;;;;;;5102814;28;19966;-67
2023/11/28 04:39:22;;;;;;;;;;;;;;;;;;5109126;27;19948;-66
2023/11/28 04:41:48;;;;;;;;;;;;;;;;;;5103053;27;20270;-66
2023/11/28 04:44:14;;;;;;;;;;;;;;;;;;5090451;28;19924;-66
2023/11/28 04:46:40;;;;;;;;;;;;;;;;;;5105185;27;19926;-66
2023/11/28 04:49:11;;;;;;;;;;;;;;;;;;5107178;27;20014;-66
2023/11/28 04:51:37;;;;;;;;;;;;;;;;;;5092809;28;19926;-66
2023/11/28 04:54:03;;;;;;;;;;;;;;;;;;5109181;28;19919;-66
2023/11/28 04:56:29;;;;;;;;;;;;;;;;;;5102078;28;19939;-66
2023/11/28 04:58:55;;;;;;;;;;;;;;;;;;5103874;27;20392;-66
2023/11/28 05:01:21;;;;;;;;;;;;;;;;;;5105589;27;19928;-66
2023/11/28 05:03:47;;;;;;;;;;;;;;;;;;5109130;27;19952;-67
2023/11/28 05:06:13;;;;;;;;;;;;;;;;;;5110810;27;20357;-67
2023/11/28 05:08:39;;;;;;;;;;;;;;;;;;5112104;27;19927;-67
2023/11/28 05:11:05;;;;;;;;;;;;;;;;;;5109117;27;19928;-67
2023/11/28 05:13:31;;;;;;;;;;;;;;;;;;5106267;27;19919;-67
2023/11/28 05:15:57;;;;;;;;;;;;;;;;;;5112266;27;19959;-67
2023/11/28 05:18:23;;;;;;;;;;;;;;;;;;5110996;27;20018;-66
2023/11/28 05:20:49;;;;;;;;;;;;;;;;;;5105541;27;19919;-66
2023/11/28 05:23:15;;;;;;;;;;;;;;;;;;5108026;28;20403;-66
2023/11/28 05:25:41;;;;;;;;;;;;;;;;;;5093213;28;20280;-66
2023/11/28 05:28:07;;;;;;;;;;;;;;;;;;5106473;28;19932;-67
2023/11/28 05:30:33;;;;;;;;;;;;;;;;;;5108093;28;19924;-67
2023/11/28 05:32:58;;;;;;;;;;;;;;;;;;5109153;27;19923;-67
2023/11/28 05:35:24;;;;;;;;;;;;;;;;;;5105255;27;19959;-67
2023/11/28 05:37:50;;;;;;;;;;;;;;;;;;5106086;27;19994;-66
2023/11/28 05:40:17;;;;;;;;;;;;;;;;;;5105973;27;19924;-67
2023/11/28 05:42:43;;;;;;;;;;;;;;;;;;5103654;28;19920;-67
2023/11/28 05:45:09;;;;;;;;;;;;;;;;;;5102083;27;19924;-67
2023/11/28 05:47:35;;;;;;;;;;;;;;;;;;5108459;27;19929;-66
2023/11/28 05:50:02;;;;;;;;;;;;;;;;;;5099193;28;20297;-67
2023/11/28 05:52:28;;;;;;;;;;;;;;;;;;5106332;27;19920;-67
2023/11/28 05:54:55;;;;;;;;;;;;;;;;;;5124255;27;19924;-67
2023/11/28 05:57:21;;;;;;;;;;;;;;;;;;5106541;28;20014;-67
2023/11/28 05:59:47;;;;;;;;;;;;;;;;;;5102260;28;19923;-68
2023/11/28 06:02:13;;;;;;;;;;;;;;;;;;5110946;28;19924;-67
2023/11/28 06:04:39;;;;;;;;;;;;;;;;;;5109385;27;19919;-67
2023/11/28 06:07:05;;;;;;;;;;;;;;;;;;5104460;28;19973;-67
2023/11/28 06:09:31;;;;;;;;;;;;;;;;;;5110575;28;20388;-67
2023/11/28 06:11:57;;;;;;;;;;;;;;;;;;5109016;28;19927;-67
2023/11/28 06:14:23;;;;;;;;;;;;;;;;;;5106592;28;19919;-67
2023/11/28 06:16:49;;;;;;;;;;;;;;;;;;5102488;28;19979;-68
2023/11/28 06:19:15;;;;;;;;;;;;;;;;;;5106208;28;20518;-67
2023/11/28 06:21:40;;;;;;;;;;;;;;;;;;5103793;28;20054;-67
2023/11/28 06:24:06;;;;;;;;;;;;;;;;;;5105991;28;20010;-67
2023/11/28 06:26:33;;;;;;;;;;;;;;;;;;5106302;28;20000;-67
2023/11/28 06:28:59;;;;;;;;;;;;;;;;;;5104517;28;20410;-67
2023/11/28 06:31:25;;;;;;;;;;;;;;;;;;5107078;28;19953;-67
2023/11/28 06:33:51;;;;;;;;;;;;;;;;;;5106913;28;19976;-67
2023/11/28 06:36:18;;;;;;;;;;;;;;;;;;5114081;27;19935;-67
2023/11/28 06:38:44;;;;;;;;;;;;;;;;;;5111125;27;19930;-68
2023/11/28 06:41:10;;;;;;;;;;;;;;;;;;5109996;27;19927;-68
2023/11/28 06:43:36;;;;;;;;;;;;;;;;;;5104707;28;19931;-67
2023/11/28 06:46:02;;;;;;;;;;;;;;;;;;5110925;27;19919;-67
2023/11/28 06:48:28;;;;;;;;;;;;;;;;;;5108502;27;20007;-68
2023/11/28 06:50:54;;;;;;;;;;;;;;;;;;5114242;28;19967;-67
2023/11/28 06:53:20;;;;;;;;;;;;;;;;;;5109716;28;20340;-68
2023/11/28 06:55:46;;;;;;;;;;;;;;;;;;5101924;28;19928;-67
2023/11/28 06:58:12;;;;;;;;;;;;;;;;;;5104388;28;19928;-67
2023/11/28 07:00:38;;;;;;;;;;;;;;;;;;5108659;28;19946;-67
2023/11/28 07:03:04;;;;;;;;;;;;;;;;;;5113515;28;19920;-68
2023/11/28 07:05:30;;;;;;;;;;;;;;;;;;5120287;27;19919;-67
2023/11/28 07:07:56;;;;;;;;;;;;;;;;;;5103376;28;20010;-68
2023/11/28 07:10:22;;;;;;;;;;;;;;;;;;5113834;28;19920;-68
2023/11/28 07:12:48;;;;;;;;;;;;;;;;;;5108248;28;20018;-67
2023/11/28 07:15:15;;;;;;;;;;;;;;;;;;5113128;28;19920;-68
2023/11/28 07:17:42;;;;;;;;;;;;;;;;;;5110623;28;19946;-68
2023/11/28 07:20:09;;;;;;;;;;;;;;;;;;5106547;28;19931;-68
2023/11/28 07:22:36;;;;;;;;;;;;;;;;;;5111220;27;20365;-67
2023/11/28 07:25:03;;;;;;;;;;;;;;;;;;5110314;28;19924;-67
2023/11/28 07:27:29;;;;;;;;;;;;;;;;;;5103814;28;19943;-67
2023/11/28 07:29:54;;;;;;;;;;;;;;;;;;5111354;27;19924;-68
2023/11/28 07:32:20;;;;;;;;;;;;;;;;;;5115731;27;19927;-67
2023/11/28 07:34:46;;;;;;;;;;;;;;;;;;5111467;28;19930;-67
2023/11/28 07:37:12;;;;;;;;;;;;;;;;;;5112663;27;19962;-67
2023/11/28 07:39:38;;;;;;;;;;;;;;;;;;5117554;27;19932;-67
2023/11/28 07:42:04;;;;;;;;;;;;;;;;;;5105910;27;19942;-67
2023/11/28 07:44:30;;;;;;;;;;;;;;;;;;5112128;28;19926;-67
2023/11/28 07:46:56;;;;;;;;;;;;;;;;;;5113633;27;19928;-67
2023/11/28 07:49:22;;;;;;;;;;;;;;;;;;5109857;27;19923;-67
2023/11/28 07:51:49;;;;;;;;;;;;;;;;;;5106601;28;20369;-67
2023/11/28 07:54:16;;;;;;;;;;;;;;;;;;5106436;27;19931;-67
2023/11/28 07:56:42;;;;;;;;;;;;;;;;;;5104876;27;19931;-67
2023/11/28 07:59:08;;;;;;;;;;;;;;;;;;5106838;27;19924;-67
2023/11/28 08:01:34;;;;;;;;;;;;;;;;;;5108970;27;19924;-67
2023/11/28 08:03:59;;;;;;;;;;;;;;;;;;5091875;28;19920;-68
2023/11/28 08:06:25;;;;;;;;;;;;;;;;;;5107451;28;19927;-67
2023/11/28 08:08:51;;;;;;;;;;;;;;;;;;5105313;28;20253;-67
2023/11/28 08:11:17;;;;;;;;;;;;;;;;;;5108115;28;19924;-66
2023/11/28 08:13:43;;;;;;;;;;;;;;;;;;5107457;27;19927;-66
2023/11/28 08:16:09;;;;;;;;;;;;;;;;;;5100180;27;20410;-67
2023/11/28 08:18:35;;;;;;;;;;;;;;;;;;5101545;28;20030;-67
2023/11/28 08:21:02;;;;;;;;;;;;;;;;;;5110747;27;19930;-68
2023/11/28 08:23:28;;;;;;;;;;;;;;;;;;5082451;28;19924;-67
2023/11/28 08:25:54;;;;;;;;;;;;;;;;;;5099081;28;19924;-67
2023/11/28 08:28:20;;;;;;;;;;;;;;;;;;5101125;28;20281;-68
2023/11/28 08:30:46;;;;;;;;;;;;;;;;;;5104027;27;20161;-68
2023/11/28 08:33:12;;;;;;;;;;;;;;;;;;5105144;28;19927;-68
2023/11/28 08:35:38;;;;;;;;;;;;;;;;;;5105843;28;19927;-67
2023/11/28 08:38:03;;;;;;;;;;;;;;;;;;5103558;28;19924;-67
2023/11/28 08:40:29;;;;;;;;;;;;;;;;;;5109166;28;19965;-67
2023/11/28 08:42:55;;;;;;;;;;;;;;;;;;5126072;27;19970;-68
2023/11/28 08:45:21;;;;;;;;;;;;;;;;;;5109734;27;19958;-68
2023/11/28 08:47:47;;;;;;;;;;;;;;;;;;5106507;27;20370;-68
2023/11/28 08:50:14;;;;;;;;;;;;;;;;;;5111328;28;19920;-68
2023/11/28 08:52:39;;;;;;;;;;;;;;;;;;5103591;28;20637;-68
2023/11/28 08:55:05;;;;;;;;;;;;;;;;;;5104463;28;20016;-68
2023/11/28 08:57:34;;;;;;;;;;;;;;;;;;5113055;27;19958;-68
2023/11/28 09:00:01;;;;;;;;;;;;;;;;;;5090555;28;20297;-68
2023/11/28 09:02:26;;;;;;;;;;;;;;;;;;5106425;28;20027;-67
2023/11/28 09:04:52;;;;;;;;;;;;;;;;;;5110972;27;19974;-68
2023/11/28 09:07:18;;;;;;;;;;;;;;;;;;5102341;28;20338;-68
2023/11/28 09:09:44;;;;;;;;;;;;;;;;;;5107857;27;20426;-68
2023/11/28 09:12:10;;;;;;;;;;;;;;;;;;5099208;28;19931;-67
2023/11/28 09:14:36;;;;;;;;;;;;;;;;;;5108667;27;19924;-67
2023/11/28 09:17:02;;;;;;;;;;;;;;;;;;5106171;27;19920;-67
2023/11/28 09:19:28;;;;;;;;;;;;;;;;;;5109149;27;19934;-68
2023/11/28 09:21:54;;;;;;;;;;;;;;;;;;5115849;27;20297;-68
2023/11/28 09:24:20;;;;;;;;;;;;;;;;;;5104689;28;19920;-67
2023/11/28 09:26:46;;;;;;;;;;;;;;;;;;5106409;27;19924;-68
2023/11/28 09:29:12;;;;;;;;;;;;;;;;;;5107247;28;19970;-68
2023/11/28 09:31:38;;;;;;;;;;;;;;;;;;5104468;28;19928;-67
2023/11/28 09:34:04;;;;;;;;;;;;;;;;;;5111210;28;19920;-68
2023/11/28 09:36:30;;;;;;;;;;;;;;;;;;5102827;28;19927;-67
2023/11/28 09:38:59;;;;;;;;;;;;;;;;;;5110712;27;20508;-67
2023/11/28 09:41:25;;;;;;;;;;;;;;;;;;5106677;28;20326;-67
2023/11/28 09:43:51;;;;;;;;;;;;;;;;;;5104025;28;19919;-67
2023/11/28 09:46:17;;;;;;;;;;;;;;;;;;5086508;28;20006;-68
2023/11/28 09:48:43;;;;;;;;;;;;;;;;;;5073359;28;19973;-67
2023/11/28 09:51:09;;;;;;;;;;;;;;;;;;5080745;28;19924;-67
2023/11/28 09:53:36;;;;;;;;;;;;;;;;;;5086457;28;20026;-67
2023/11/28 09:56:02;;;;;;;;;;;;;;;;;;5105116;27;19923;-67
2023/11/28 09:58:28;;;;;;;;;;;;;;;;;;5092529;28;19931;-67
2023/11/28 10:00:54;;;;;;;;;;;;;;;;;;5100852;27;20014;-67
2023/11/28 10:03:20;;;;;;;;;;;;;;;;;;5091860;27;19930;-67
2023/11/28 10:05:46;;;;;;;;;;;;;;;;;;5089726;28;20401;-67
2023/11/28 10:08:12;;;;;;;;;;;;;;;;;;5093388;28;19927;-67
2023/11/28 10:10:39;;;;;;;;;;;;;;;;;;5087643;28;19970;-67
2023/11/28 10:13:05;;;;;;;;;;;;;;;;;;5116700;28;19946;-67
2023/11/28 10:15:31;;;;;;;;;;;;;;;;;;5099894;28;19924;-66
2023/11/28 10:17:57;;;;;;;;;;;;;;;;;;5100661;28;19932;-68
2023/11/28 10:20:27;;;;;;;;;;;;;;;;;;5092572;28;19935;-67
2023/11/28 10:22:53;;;;;;;;;;;;;;;;;;5100017;28;19931;-68
2023/11/28 10:25:19;;;;;;;;;;;;;;;;;;5092279;28;19920;-67
2023/11/28 10:27:46;;;;;;;;;;;;;;;;;;5086346;28;20558;-67
2023/11/28 10:30:12;;;;;;;;;;;;;;;;;;5106474;28;19924;-67
2023/11/28 10:32:39;;;;;;;;;;;;;;;;;;5096830;28;20299;-67
2023/11/28 10:35:05;;;;;;;;;;;;;;;;;;5102810;28;19924;-67
2023/11/28 10:37:31;;;;;;;;;;;;;;;;;;5087122;28;19920;-67
2023/11/28 10:39:57;;;;;;;;;;;;;;;;;;5097316;28;19926;-67
2023/11/28 10:42:23;;;;;;;;;;;;;;;;;;5101894;28;19947;-67
2023/11/28 10:44:49;;;;;;;;;;;;;;;;;;5107529;28;20014;-67
2023/11/28 10:47:15;;;;;;;;;;;;;;;;;;5107326;28;20424;-67
2023/11/28 10:49:41;;;;;;;;;;;;;;;;;;5106497;28;19920;-68
2023/11/28 10:52:07;;;;;;;;;;;;;;;;;;5106214;28;19967;-67
2023/11/28 10:54:33;;;;;;;;;;;;;;;;;;5101279;28;20354;-67
2023/11/28 10:56:59;;;;;;;;;;;;;;;;;;5086190;28;19924;-67
2023/11/28 10:59:26;;;;;;;;;;;;;;;;;;5101128;28;19928;-67
2023/11/28 11:01:52;;;;;;;;;;;;;;;;;;5105052;28;19927;-67
2023/11/28 11:04:18;;;;;;;;;;;;;;;;;;5108966;28;19920;-67
2023/11/28 11:06:44;;;;;;;;;;;;;;;;;;5103330;28;20026;-66
2023/11/28 11:09:11;;;;;;;;;;;;;;;;;;5104840;28;20031;-66
2023/11/28 11:11:37;;;;;;;;;;;;;;;;;;5111335;28;19927;-66
2023/11/28 11:14:03;;;;;;;;;;;;;;;;;;5099993;28;19986;-67
2023/11/28 11:16:29;;;;;;;;;;;;;;;;;;5087577;28;19931;-67
2023/11/28 11:18:56;;;;;;;;;;;;;;;;;;5106754;28;19932;-67
2023/11/28 11:21:22;;;;;;;;;;;;;;;;;;5106634;28;19950;-67
2023/11/28 11:23:48;;;;;;;;;;;;;;;;;;5113002;28;19920;-67
2023/11/28 11:26:14;;;;;;;;;;;;;;;;;;5106997;28;19931;-67
2023/11/28 11:28:41;;;;;;;;;;;;;;;;;;5109509;28;19927;-67
2023/11/28 11:31:07;;;;;;;;;;;;;;;;;;5102939;28;20264;-67
2023/11/28 11:33:33;;;;;;;;;;;;;;;;;;5107676;28;19930;-67
2023/11/28 11:35:59;;;;;;;;;;;;;;;;;;5110384;27;19920;-67
2023/11/28 11:38:25;;;;;;;;;;;;;;;;;;5104545;28;20593;-67
2023/11/28 11:40:51;;;;;;;;;;;;;;;;;;5105511;27;19923;-67
2023/11/28 11:43:17;;;;;;;;;;;;;;;;;;5103624;28;19919;-67
2023/11/28 11:45:43;;;;;;;;;;;;;;;;;;5104006;27;19927;-67
2023/11/28 11:48:09;;;;;;;;;;;;;;;;;;5112568;27;19926;-67
2023/11/28 11:50:35;;;;;;;;;;;;;;;;;;5108584;27;19939;-67
2023/11/28 11:53:01;;;;;;;;;;;;;;;;;;5113376;27;19981;-67
2023/11/28 11:55:27;;;;;;;;;;;;;;;;;;5110685;27;20271;-67
2023/11/28 11:57:52;;;;;;;;;;;;;;;;;;5109978;28;20389;-66
2023/11/28 12:00:18;;;;;;;;;;;;;;;;;;5109202;27;20384;-67
2023/11/28 12:02:44;;;;;;;;;;;;;;;;;;5111540;27;20424;-68
2023/11/28 12:05:10;;;;;;;;;;;;;;;;;;5093913;28;19926;-67
2023/11/28 12:07:36;;;;;;;;;;;;;;;;;;5115300;27;19928;-67
2023/11/28 12:10:02;;;;;;;;;;;;;;;;;;5112612;27;19923;-67
2023/11/28 12:12:28;;;;;;;;;;;;;;;;;;5109646;27;20289;-68
2023/11/28 12:14:54;;;;;;;;;;;;;;;;;;5112616;28;19951;-68
2023/11/28 12:17:22;;;;;;;;;;;;;;;;;;5111408;28;19920;-67
2023/11/28 12:19:49;;;;;;;;;;;;;;;;;;5112268;28;20011;-67
2023/11/28 12:22:16;;;;;;;;;;;;;;;;;;5113231;27;19919;-67
2023/11/28 12:24:42;;;;;;;;;;;;;;;;;;5103854;27;20008;-67
2023/11/28 12:27:07;;;;;;;;;;;;;;;;;;5111484;28;19927;-67
2023/11/28 12:29:33;;;;;;;;;;;;;;;;;;5105946;27;19995;-67
2023/11/28 12:32:00;;;;;;;;;;;;;;;;;;5112798;28;20460;-68
2023/11/28 12:34:26;;;;;;;;;;;;;;;;;;5107343;28;19923;-67
2023/11/28 12:36:52;;;;;;;;;;;;;;;;;;5087952;28;19919;-67
2023/11/28 12:39:18;;;;;;;;;;;;;;;;;;5103334;28;19923;-68
2023/11/28 12:41:46;;;;;;;;;;;;;;;;;;5104365;28;19971;-67
2023/11/28 12:44:11;;;;;;;;;;;;;;;;;;5107512;28;20377;-67
2023/11/28 12:46:38;;;;;;;;;;;;;;;;;;5108894;27;20010;-67
2023/11/28 12:49:05;;;;;;;;;;;;;;;;;;5105087;27;19927;-68
2023/11/28 12:51:31;;;;;;;;;;;;;;;;;;5110219;28;20391;-68
2023/11/28 12:53:57;;;;;;;;;;;;;;;;;;5108461;27;20018;-67
2023/11/28 12:56:23;;;;;;;;;;;;;;;;;;5098950;28;20396;-67
2023/11/28 12:58:48;;;;;;;;;;;;;;;;;;5106205;28;19925;-67
2023/11/28 13:01:14;;;;;;;;;;;;;;;;;;5106650;27;19924;-67
2023/11/28 13:03:40;;;;;;;;;;;;;;;;;;5114815;27;19919;-67
2023/11/28 13:06:06;;;;;;;;;;;;;;;;;;5110553;28;20113;-68
2023/11/28 13:08:32;;;;;;;;;;;;;;;;;;5103292;28;19923;-68
2023/11/28 13:10:58;;;;;;;;;;;;;;;;;;5100872;28;19924;-67
2023/11/28 13:13:24;;;;;;;;;;;;;;;;;;5105852;28;19942;-67
2023/11/28 13:15:50;;;;;;;;;;;;;;;;;;5106929;28;19920;-67
2023/11/28 13:18:16;;;;;;;;;;;;;;;;;;5124762;27;20471;-68
2023/11/28 13:20:42;;;;;;;;;;;;;;;;;;5123865;27;19924;-68
2023/11/28 13:23:08;;;;;;;;;;;;;;;;;;5106576;28;19919;-67
2023/11/28 13:25:34;;;;;;;;;;;;;;;;;;5106668;27;20262;-67
2023/11/28 13:28:01;;;;;;;;;;;;;;;;;;5102692;28;19924;-68
2023/11/28 13:30:27;;;;;;;;;;;;;;;;;;5109064;28;20258;-68
2023/11/28 13:32:56;;;;;;;;;;;;;;;;;;5098486;28;19966;-67
2023/11/28 13:35:21;;;;;;;;;;;;;;;;;;5106999;28;19950;-67
2023/11/28 13:37:47;;;;;;;;;;;;;;;;;;5101082;27;19927;-67
2023/11/28 13:40:13;;;;;;;;;;;;;;;;;;5104209;28;19919;-67
2023/11/28 13:42:39;;;;;;;;;;;;;;;;;;5112204;28;19920;-67
2023/11/28 13:45:07;;;;;;;;;;;;;;;;;;5108399;28;19924;-67
2023/11/28 13:47:33;;;;;;;;;;;;;;;;;;5101896;28;19920;-67
2023/11/28 13:49:59;;;;;;;;;;;;;;;;;;5106613;28;19930;-67
2023/11/28 13:52:25;;;;;;;;;;;;;;;;;;5112264;28;19959;-67
2023/11/28 13:54:56;;;;;;;;;;;;;;;;;;5106173;27;20780;-67
2023/11/28 13:57:22;;;;;;;;;;;;;;;;;;5107294;28;19962;-67
2023/11/28 13:59:48;;;;;;;;;;;;;;;;;;5127552;27;19971;-67
2023/11/28 14:02:14;;;;;;;;;;;;;;;;;;5108543;28;19924;-67
2023/11/28 14:04:40;;;;;;;;;;;;;;;;;;5110686;28;19919;-67
2023/11/28 14:07:05;;;;;;;;;;;;;;;;;;5106977;28;20413;-67
2023/11/28 14:09:31;;;;;;;;;;;;;;;;;;5104161;28;20053;-67
2023/11/28 14:11:57;;;;;;;;;;;;;;;;;;5098972;28;20521;-67
2023/11/28 14:14:24;;;;;;;;;;;;;;;;;;5111573;28;19954;-67
2023/11/28 14:16:50;;;;;;;;;;;;;;;;;;5110117;28;20409;-67
2023/11/28 14:19:16;;;;;;;;;;;;;;;;;;5090478;28;19928;-67
2023/11/28 14:21:42;;;;;;;;;;;;;;;;;;5111742;28;19920;-67
2023/11/28 14:24:08;;;;;;;;;;;;;;;;;;5110141;28;20381;-67
2023/11/28 14:26:34;;;;;;;;;;;;;;;;;;5110617;28;19977;-67
2023/11/28 14:29:00;;;;;;;;;;;;;;;;;;5109535;28;20006;-67
2023/11/28 14:31:25;;;;;;;;;;;;;;;;;;5108029;28;20412;-67
2023/11/28 14:33:52;;;;;;;;;;;;;;;;;;5102642;28;20033;-67
2023/11/28 14:36:17;;;;;;;;;;;;;;;;;;5109276;28;20293;-67
2023/11/28 14:38:44;;;;;;;;;;;;;;;;;;5106887;28;19935;-67
2023/11/28 14:41:10;;;;;;;;;;;;;;;;;;5105594;28;19920;-67
2023/11/28 14:43:36;;;;;;;;;;;;;;;;;;5105295;28;19927;-67
2023/11/28 14:46:02;;;;;;;;;;;;;;;;;;5093555;28;20006;-67
2023/11/28 14:48:28;;;;;;;;;;;;;;;;;;5097045;28;19920;-67
2023/11/28 14:50:54;;;;;;;;;;;;;;;;;;5117171;27;19927;-67
2023/11/28 14:53:20;;;;;;;;;;;;;;;;;;5099144;28;19924;-67
2023/11/28 14:55:46;;;;;;;;;;;;;;;;;;5085165;28;19976;-66
2023/11/28 14:58:12;;;;;;;;;;;;;;;;;;5088487;27;19932;-66
2023/11/28 15:00:39;;;;;;;;;;;;;;;;;;5101669;27;19933;-66
2023/11/28 15:03:05;;;;;;;;;;;;;;;;;;5107510;27;19959;-66
2023/11/28 15:05:32;;;;;;;;;;;;;;;;;;5103052;28;20397;-66
2023/11/28 15:07:59;;;;;;;;;;;;;;;;;;5108048;27;19920;-68
2023/11/28 15:10:25;;;;;;;;;;;;;;;;;;5091876;28;20322;-67
2023/11/28 15:12:51;;;;;;;;;;;;;;;;;;5112325;27;20015;-67
2023/11/28 15:15:17;;;;;;;;;;;;;;;;;;5083159;28;19924;-67
2023/11/28 15:17:43;;;;;;;;;;;;;;;;;;5079589;28;20331;-68
2023/11/28 15:20:09;;;;;;;;;;;;;;;;;;5086073;28;20262;-67
2023/11/28 15:22:35;;;;;;;;;;;;;;;;;;5082040;28;19927;-67
2023/11/28 15:25:01;;;;;;;;;;;;;;;;;;5084406;27;19932;-67
2023/11/28 15:27:27;;;;;;;;;;;;;;;;;;5088844;28;21958;-67
2023/11/28 15:29:58;;;;;;;;;;;;;;;;;;5103479;28;20597;-67
2023/11/28 15:32:24;;;;;;;;;;;;;;;;;;5096894;28;19934;-67
2023/11/28 15:34:49;;;;;;;;;;;;;;;;;;5088373;27;21098;-68
2023/11/28 15:37:15;;;;;;;;;;;;;;;;;;5096042;27;20809;-68
2023/11/28 15:39:41;;;;;;;;;;;;;;;;;;5104151;27;20940;-67
2023/11/28 15:42:08;;;;;;;;;;;;;;;;;;5088066;28;22111;-67
2023/11/28 15:44:33;;;;;;;;;;;;;;;;;;5100794;28;19924;-67
2023/11/28 15:47:02;;;;;;;;;;;;;;;;;;5093990;27;20708;-68
2023/11/28 15:49:27;;;;;;;;;;;;;;;;;;5088850;28;22122;-67
2023/11/28 15:51:55;;;;;;;;;;;;;;;;;;5097017;27;19954;-67
2023/11/28 15:54:20;;;;;;;;;;;;;;;;;;5095914;27;22533;-67
2023/11/28 15:56:48;;;;;;;;;;;;;;;;;;5088995;27;20382;-67
2023/11/28 15:59:14;;;;;;;;;;;;;;;;;;5086309;28;20640;-67
2023/11/28 16:01:40;;;;;;;;;;;;;;;;;;5086162;27;21563;-67
2023/11/28 16:04:06;;;;;;;;;;;;;;;;;;5072399;28;20728;-67
2023/11/28 16:06:32;;;;;;;;;;;;;;;;;;5098904;28;19927;-67
2023/11/28 16:08:58;;;;;;;;;;;;;;;;;;5086737;27;20864;-67
2023/11/28 16:11:24;;;;;;;;;;;;;;;;;;5083819;22;19994;-66
2023/11/28 16:13:50;;;;;;;;;;;;;;;;;;5030724;28;21607;-66
2023/11/28 16:16:16;;;;;;;;;;;;;;;;;;5035513;28;20836;-66
2023/11/28 16:18:43;;;;;;;;;;;;;;;;;;5037495;28;20393;-66
2023/11/28 16:21:09;;;;;;;;;;;;;;;;;;5035999;28;19961;-65
2023/11/28 16:23:35;;;;;;;;;;;;;;;;;;5028269;28;19921;-65
2023/11/28 16:26:01;;;;;;;;;;;;;;;;;;5027236;28;22094;-65
2023/11/28 16:28:27;;;;;;;;;;;;;;;;;;5036356;28;20405;-65
2023/11/28 16:30:53;;;;;;;;;;;;;;;;;;5034695;28;21966;-64
2023/11/28 16:33:19;;;;;;;;;;;;;;;;;;5030832;28;21142;-65
2023/11/28 16:35:45;;;;;;;;;;;;;;;;;;5035217;28;21740;-66
2023/11/28 16:38:11;;;;;;;;;;;;;;;;;;5045324;28;20343;-65